Time;durP1;ratioP1;P1;durP2;ratioP2;P2;SDS_P1;SDS_P2;PMS_P1;PMS_P2;Temp;Humidity;BMP_temperature;BMP_pressure;BME280_temperature;BME280_humidity;BME280_pressure;Samples;Min_cycle;Max_cycle;Signal;HPM_P1;HPM_P2
2022/08/03 00:01:01;;;;;;;2.05;1.23;;;;;;;22.07;52.80;99246.28;4924369;29;20019;-93
2022/08/03 00:03:28;;;;;;;2.08;1.40;;;;;;;22.27;52.28;99266.47;4908403;29;20050;-93
2022/08/03 00:05:53;;;;;;;2.40;1.55;;;;;;;22.17;52.56;99254.00;4940547;29;20035;-92
2022/08/03 00:08:19;;;;;;;1.70;1.30;;;;;;;22.29;52.18;99286.13;4926825;29;20505;-93
2022/08/03 00:10:44;;;;;;;4.57;1.40;;;;;;;22.17;52.48;99264.19;4927714;29;20027;-93
2022/08/03 00:13:12;;;;;;;2.20;1.40;;;;;;;21.94;52.87;99250.22;4927387;29;20083;-93
2022/08/03 00:15:41;;;;;;;2.10;1.50;;;;;;;22.02;52.57;99263.00;4926855;28;20058;-94
2022/08/03 00:18:06;;;;;;;1.98;1.20;;;;;;;22.05;52.63;99272.47;4926277;29;20058;-93
2022/08/03 00:20:32;;;;;;;1.90;1.50;;;;;;;22.09;52.67;99273.38;4910873;29;20028;-93
2022/08/03 00:22:57;;;;;;;4.38;1.35;;;;;;;21.97;52.89;99272.25;4911035;29;20030;-93
2022/08/03 00:25:23;;;;;;;1.85;1.15;;;;;;;21.90;53.17;99258.34;4912003;29;20090;-94
2022/08/03 00:27:48;;;;;;;1.70;1.42;;;;;;;21.94;53.17;99280.38;4910338;29;20035;-93
2022/08/03 00:30:14;;;;;;;2.22;1.42;;;;;;;21.85;53.14;99266.00;4911716;29;20030;-93
2022/08/03 00:32:39;;;;;;;3.60;1.40;;;;;;;21.84;53.47;99276.16;4910671;29;20038;-92
2022/08/03 00:35:05;;;;;;;2.20;1.52;;;;;;;21.71;53.96;99261.69;4926373;29;20086;-92
2022/08/03 00:37:31;;;;;;;2.58;1.50;;;;;;;21.86;53.47;99286.78;4911798;29;20093;-93
2022/08/03 00:39:56;;;;;;;2.78;1.45;;;;;;;21.85;53.90;99293.41;4912518;29;20038;-94
2022/08/03 00:42:22;;;;;;;3.20;1.50;;;;;;;21.65;53.93;99278.72;4911889;29;20027;-94
2022/08/03 00:44:47;;;;;;;1.60;1.10;;;;;;;21.43;55.08;99269.84;4910461;29;20034;-94
2022/08/03 00:47:13;;;;;;;4.22;1.60;;;;;;;21.36;55.43;99278.59;4910701;29;20031;-92
2022/08/03 00:49:38;;;;;;;2.35;1.52;;;;;;;21.37;55.21;99291.16;4910937;29;20039;-93
2022/08/03 00:52:05;;;;;;;4.97;1.63;;;;;;;21.22;55.66;99266.41;4911350;29;20094;-93
2022/08/03 00:54:30;;;;;;;4.00;1.80;;;;;;;21.23;55.58;99259.75;4925443;29;20107;-95
2022/08/03 00:56:55;;;;;;;2.65;1.98;;;;;;;21.28;55.55;99267.75;4910610;29;20035;-94
2022/08/03 00:59:21;;;;;;;4.85;2.03;;;;;;;21.26;55.36;99261.84;4926295;29;20120;-92
2022/08/03 01:01:47;;;;;;;3.95;1.90;;;;;;;21.24;55.75;99273.13;4909887;29;20068;-93
2022/08/03 01:04:12;;;;;;;3.58;1.70;;;;;;;21.17;55.93;99270.16;4925136;29;20035;-93
2022/08/03 01:06:43;;;;;;;3.10;1.77;;;;;;;21.34;55.72;99291.03;4909851;29;20031;-93
2022/08/03 01:09:14;;;;;;;2.47;1.50;;;;;;;21.19;56.12;99276.09;4941988;29;20023;-95
2022/08/03 01:12:00;;;;;;;2.95;1.95;;;;;;;21.16;55.56;99274.81;4926133;29;20027;-93
2022/08/03 01:14:45;;;;;;;3.10;1.98;;;;;;;21.39;55.17;99299.03;4925356;29;20488;-94
2022/08/03 01:17:18;;;;;;;3.05;1.60;;;;;;;21.29;56.32;99305.78;4934233;28;20073;-92
2022/08/03 01:20:03;;;;;;;2.15;1.50;;;;;;;21.22;56.63;99280.88;4906376;29;20034;-92
2022/08/03 01:23:06;;;;;;;3.03;1.50;;;;;;;21.25;56.57;99295.81;4926533;29;20030;-94
2022/08/03 01:25:39;;;;;;;2.15;1.50;;;;;;;21.20;56.80;99299.59;4941993;29;20031;-92
2022/08/03 01:28:32;;;;;;;2.30;1.45;;;;;;;21.24;56.37;99302.44;4941554;29;20057;-91
2022/08/03 01:31:01;;;;;;;2.25;1.50;;;;;;;21.08;56.48;99285.88;4941074;29;20031;-91
2022/08/03 01:33:38;;;;;;;1.73;1.45;;;;;;;21.13;56.67;99297.41;4925868;29;20035;-91
2022/08/03 01:36:11;;;;;;;2.33;1.65;;;;;;;21.07;57.19;99296.03;4926182;29;20122;-94
2022/08/03 01:38:49;;;;;;;2.45;1.42;;;;;;;21.06;56.67;99288.16;4926361;29;20043;-93
2022/08/03 01:41:20;;;;;;;2.38;1.77;;;;;;;21.09;56.74;99310.19;4910209;29;20066;-92
2022/08/03 01:43:48;;;;;;;4.25;1.55;;;;;;;21.03;56.97;99289.66;4923572;29;20517;-95
2022/08/03 01:46:14;;;;;;;2.15;1.50;;;;;;;20.91;57.09;99286.88;4925035;29;20114;-94
2022/08/03 01:48:41;;;;;;;3.50;1.50;;;;;;;20.92;57.36;99294.78;4925020;29;20082;-94
2022/08/03 01:51:08;;;;;;;2.10;1.40;;;;;;;20.80;57.26;99278.31;4924849;29;20038;-93
2022/08/03 01:53:33;;;;;;;2.55;1.50;;;;;;;20.88;56.95;99282.13;4956014;29;20110;-94
2022/08/03 01:56:01;;;;;;;3.30;1.55;;;;;;;20.91;57.52;99276.75;4909204;29;20039;-93
2022/08/03 01:58:27;;;;;;;2.00;1.38;;;;;;;20.89;57.82;99286.44;4921285;29;20024;-94
2022/08/03 02:00:58;;;;;;;2.55;1.50;;;;;;;20.96;56.92;99297.63;4938070;29;20410;-95
2022/08/03 02:03:23;;;;;;;2.10;1.63;;;;;;;20.93;57.70;99317.47;4943881;28;20027;-93
2022/08/03 02:05:49;;;;;;;3.92;1.40;;;;;;;20.69;58.06;99277.97;4944100;28;20488;-93
2022/08/03 02:08:14;;;;;;;2.35;1.45;;;;;;;20.83;57.94;99302.25;4928739;28;20031;-94
2022/08/03 02:10:40;;;;;;;3.45;1.60;;;;;;;20.79;58.22;99296.69;4944496;28;20027;-95
2022/08/03 02:13:07;;;;;;;6.45;1.50;;;;;;;20.70;58.29;99287.75;4935780;29;20031;-93
2022/08/03 02:15:32;;;;;;;2.20;1.58;;;;;;;20.70;58.38;99284.22;4909890;28;20035;-93
2022/08/03 02:17:58;;;;;;;6.45;1.67;;;;;;;20.73;58.05;99289.00;4922443;29;20063;-92
2022/08/03 02:20:24;;;;;;;3.20;1.55;;;;;;;20.69;58.16;99288.09;4891156;29;20475;-92
2022/08/03 02:22:49;;;;;;;1.98;1.42;;;;;;;20.63;58.53;99284.78;4894002;29;20051;-93
2022/08/03 02:25:15;;;;;;;2.83;1.50;;;;;;;20.68;58.36;99298.25;4908987;29;20097;-93
2022/08/03 02:28:16;;;;;;;2.22;1.40;;;;;;;20.65;58.36;99292.63;4908774;29;20117;-92
2022/08/03 02:30:42;;;;;;;2.60;1.83;;;;;;;20.64;58.02;99286.38;4924496;29;20043;-92
2022/08/03 02:33:10;;;;;;;2.50;1.70;;;;;;;20.84;57.03;99297.63;4908745;29;20282;-93
2022/08/03 02:35:35;;;;;;;2.70;1.75;;;;;;;20.87;56.43;99296.91;4924046;29;20133;-93
2022/08/03 02:38:02;;;;;;;2.50;1.52;;;;;;;20.90;57.12;99302.53;4940508;29;20081;-92
2022/08/03 02:40:28;;;;;;;3.38;1.50;;;;;;;20.78;57.37;99294.28;4924352;29;20038;-93
2022/08/03 02:42:55;;;;;;;3.00;1.42;;;;;;;20.74;57.12;99277.75;4908878;29;20035;-93
2022/08/03 02:45:21;;;;;;;2.10;1.30;;;;;;;20.88;56.58;99296.59;4908665;29;20031;-93
2022/08/03 02:47:47;;;;;;;2.85;1.50;;;;;;;20.75;57.28;99278.53;4940512;29;20027;-93
2022/08/03 02:50:13;;;;;;;2.10;1.48;;;;;;;20.88;56.48;99284.84;4940273;29;20462;-92
2022/08/03 02:52:38;;;;;;;2.92;1.40;;;;;;;20.89;55.70;99283.69;4927992;28;20093;-92
2022/08/03 02:55:05;;;;;;;2.60;1.48;;;;;;;20.93;56.61;99299.09;4927640;28;20493;-92
2022/08/03 02:57:30;;;;;;;2.53;1.63;;;;;;;20.89;56.42;99292.69;4956512;28;20413;-93
2022/08/03 02:59:56;;;;;;;6.22;1.75;;;;;;;20.77;57.03;99298.16;4908501;29;20031;-93
2022/08/03 03:02:22;;;;;;;3.60;1.70;;;;;;;20.81;56.68;99293.59;4942131;28;20028;-92
2022/08/03 03:04:51;;;;;;;3.20;2.83;;;;;;;21.00;56.29;99306.78;4927149;28;20041;-93
2022/08/03 03:07:16;;;;;;;3.45;1.55;;;;;;;20.95;56.33;99299.56;4943326;28;20046;-92
2022/08/03 03:09:42;;;;;;;3.47;2.00;;;;;;;20.88;56.06;99291.13;4928345;28;20031;-91
2022/08/03 03:12:08;;;;;;;3.33;2.33;;;;;;;21.01;55.83;99308.34;4960113;28;20041;-92
2022/08/03 03:14:33;;;;;;;3.65;1.70;;;;;;;20.97;55.87;99305.50;4923960;29;20068;-92
2022/08/03 03:17:00;;;;;;;6.95;2.22;;;;;;;20.96;56.17;99323.06;4905433;29;20051;-92
2022/08/03 03:19:26;;;;;;;3.17;1.83;;;;;;;20.82;56.64;99308.09;4956127;28;20033;-92
2022/08/03 03:21:51;;;;;;;2.10;1.55;;;;;;;20.63;57.45;99309.41;4926880;28;20031;-91
2022/08/03 03:24:16;;;;;;;7.43;2.20;;;;;;;20.59;57.56;99311.22;4926592;28;20030;-91
2022/08/03 03:26:42;;;;;;;2.85;1.88;;;;;;;20.50;57.97;99314.00;4926759;28;20038;-91
2022/08/03 03:29:08;;;;;;;3.83;1.75;;;;;;;20.36;58.31;99327.97;4926692;28;20026;-90
2022/08/03 03:31:34;;;;;;;3.78;1.50;;;;;;;20.33;58.90;99323.16;4942412;28;20022;-89
2022/08/03 03:34:02;;;;;;;2.72;1.83;;;;;;;20.19;59.22;99314.41;4930069;29;20031;-94
2022/08/03 03:36:28;;;;;;;5.25;1.60;;;;;;;20.08;59.82;99319.50;4927222;29;20038;-95
2022/08/03 03:38:53;;;;;;;3.38;1.70;;;;;;;20.13;59.34;99302.91;4925340;29;20055;-95
2022/08/03 03:41:19;;;;;;;7.60;1.95;;;;;;;20.15;59.49;99317.03;4926404;29;20034;-94
2022/08/03 03:43:45;;;;;;;4.97;2.38;;;;;;;19.93;60.23;99322.84;4945406;29;20055;-95
2022/08/03 03:46:11;;;;;;;5.28;2.15;;;;;;;19.87;60.38;99316.75;4912844;29;20031;-94
2022/08/03 03:48:38;;;;;;;13.90;3.17;;;;;;;19.92;60.61;99327.50;4928179;29;20103;-94
2022/08/03 03:51:03;;;;;;;10.00;3.60;;;;;;;19.98;60.59;99333.56;4927590;29;20027;-94
2022/08/03 03:53:29;;;;;;;4.13;2.38;;;;;;;19.96;60.39;99336.63;4912140;29;20051;-94
2022/08/03 03:55:56;;;;;;;3.50;2.35;;;;;;;20.04;60.95;99340.44;4928254;29;20027;-94
2022/08/03 03:58:21;;;;;;;5.55;2.55;;;;;;;20.05;60.39;99333.84;4912016;29;20106;-94
2022/08/03 04:00:47;;;;;;;3.53;2.35;;;;;;;20.29;59.44;99338.63;4911409;29;20154;-94
2022/08/03 04:03:12;;;;;;;7.35;2.42;;;;;;;20.21;59.69;99330.50;4927886;29;20019;-95
2022/08/03 04:11:17;;;;;;;9.57;2.20;;;;;;;20.21;60.05;99341.44;4946312;29;20062;-94
2022/08/03 04:13:44;;;;;;;5.07;2.25;;;;;;;20.12;60.22;99341.50;4928149;29;20490;-94
2022/08/03 04:16:11;;;;;;;5.20;2.30;;;;;;;20.26;59.92;99352.19;4926836;29;20027;-94
2022/08/03 04:18:37;;;;;;;5.93;2.08;;;;;;;20.05;60.52;99331.09;4912258;29;20027;-94
2022/08/03 04:21:12;;;;;;;3.15;2.10;;;;;;;20.05;60.71;99338.50;4912216;29;20030;-93
2022/08/03 04:23:49;;;;;;;2.70;2.38;;;;;;;19.96;60.54;99352.22;4914395;29;20466;-93
2022/08/03 04:26:17;;;;;;;7.45;3.20;;;;;;;20.14;60.38;99347.44;4914034;29;20094;-93
2022/08/03 04:28:44;;;;;;;5.07;2.85;;;;;;;20.04;60.71;99343.16;4913073;29;20409;-93
2022/08/03 04:31:12;;;;;;;8.43;3.20;;;;;;;20.28;60.00;99356.19;4910983;29;20027;-96
2022/08/03 04:33:38;;;;;;;5.82;2.85;;;;;;;20.31;59.50;99351.97;4922182;29;20399;-94
2022/08/03 04:36:07;;;;;;;9.02;4.70;;;;;;;20.46;59.34;99356.03;4915090;29;20015;-94
2022/08/03 04:38:39;;;;;;;4.78;3.17;;;;;;;20.62;58.99;99339.84;4916950;29;20022;-95
2022/08/03 04:41:06;;;;;;;5.22;2.40;;;;;;;20.91;57.98;99352.59;4912673;29;20042;-94
2022/08/03 04:43:32;;;;;;;8.50;2.95;;;;;;;20.93;57.25;99345.63;4913513;29;20035;-95
2022/08/03 04:45:57;;;;;;;5.80;3.13;;;;;;;21.20;56.98;99348.88;4912736;29;20114;-94
2022/08/03 04:48:23;;;;;;;4.82;2.60;;;;;;;21.31;56.65;99341.00;4928170;29;20166;-95
2022/08/03 04:50:54;;;;;;;7.30;3.13;;;;;;;21.38;56.52;99349.47;4917192;29;20023;-95
2022/08/03 04:53:22;;;;;;;5.43;2.90;;;;;;;21.49;56.01;99350.66;4928286;29;20494;-96
2022/08/03 04:55:47;;;;;;;3.60;2.75;;;;;;;21.80;54.76;99368.47;4911638;29;20023;-94
2022/08/03 04:58:13;;;;;;;4.93;3.22;;;;;;;21.97;54.31;99359.97;4914954;29;20034;-95
2022/08/03 05:00:38;;;;;;;8.45;3.47;;;;;;;22.09;54.28;99361.91;4942983;29;20049;-95
2022/08/03 05:03:07;;;;;;;8.07;2.72;;;;;;;22.27;54.52;99370.69;4926639;29;20038;-96
2022/08/03 05:05:34;;;;;;;10.63;3.72;;;;;;;22.29;54.14;99370.38;4946039;29;20030;-93
2022/08/03 05:08:23;;;;;;;5.28;2.70;;;;;;;22.27;53.66;99367.16;4960067;29;20023;-95
2022/08/03 05:10:49;;;;;;;5.78;4.47;;;;;;;22.45;53.61;99371.19;4946019;29;20401;-93
2022/08/03 05:13:14;;;;;;;6.78;4.03;;;;;;;22.42;53.25;99358.19;4942216;29;20047;-94
2022/08/03 05:15:40;;;;;;;7.63;4.03;;;;;;;22.73;52.71;99390.44;4946410;28;20027;-93
2022/08/03 05:18:06;;;;;;;7.35;3.85;;;;;;;22.73;52.86;99384.94;4911891;29;20117;-94
2022/08/03 05:20:35;;;;;;;14.38;12.98;;;;;;;22.65;53.26;99374.13;4910868;29;20026;-93
2022/08/03 05:23:02;;;;;;;4.55;3.80;;;;;;;22.75;53.13;99377.16;4909536;29;20023;-94
2022/08/03 05:25:33;;;;;;;11.57;5.63;;;;;;;22.93;52.72;99383.16;4940361;29;20089;-92
2022/08/03 05:27:59;;;;;;;8.05;4.85;;;;;;;22.97;52.55;99381.31;4943614;29;20109;-94
2022/08/03 05:30:27;;;;;;;6.05;4.85;;;;;;;23.12;52.80;99400.94;4930652;29;20062;-95
2022/08/03 05:32:53;;;;;;;9.95;4.63;;;;;;;23.11;51.81;99385.59;4934065;29;20042;-95
2022/08/03 05:35:18;;;;;;;11.20;4.18;;;;;;;23.22;51.67;99381.16;4928951;29;20031;-94
2022/08/03 05:37:44;;;;;;;9.20;4.30;;;;;;;23.37;50.93;99390.59;4931636;29;20030;-95
2022/08/03 05:40:13;;;;;;;8.90;3.35;;;;;;;23.69;50.59;99404.31;4935801;29;20081;-91
2022/08/03 05:42:38;;;;;;;7.57;3.10;;;;;;;23.60;50.91;99377.03;4911960;29;20027;-91
2022/08/03 05:45:19;;;;;;;11.05;4.93;;;;;;;23.87;50.81;99400.06;4949496;29;20031;-94
2022/08/03 05:47:49;;;;;;;5.32;2.60;;;;;;;23.97;49.60;99385.78;4929206;29;20023;-93
2022/08/03 05:50:23;;;;;;;11.55;5.72;;;;;;;24.30;49.59;99394.72;4908940;28;20020;-91
2022/08/03 05:52:48;;;;;;;27.90;14.18;;;;;;;24.27;48.95;99373.44;4943484;28;20090;-91
2022/08/03 05:55:14;;;;;;;6.72;3.45;;;;;;;24.50;48.44;99393.63;4922341;29;20027;-91
2022/08/03 05:57:39;;;;;;;9.40;3.20;;;;;;;24.59;48.18;99402.47;4906251;29;20019;-90
2022/08/03 06:00:07;;;;;;;5.30;3.08;;;;;;;24.84;47.61;99410.44;4905680;29;20574;-91
2022/08/03 06:02:32;;;;;;;4.60;2.70;;;;;;;24.96;46.87;99402.00;4906195;29;20024;-94
2022/08/03 06:04:58;;;;;;;5.57;3.25;;;;;;;25.06;46.62;99394.31;4939950;29;20059;-93
2022/08/03 06:07:27;;;;;;;4.65;2.75;;;;;;;25.31;45.04;99411.34;4924294;29;20036;-93
2022/08/03 06:09:54;;;;;;;2.85;2.00;;;;;;;25.40;46.00;99420.13;4922548;29;20024;-93
2022/08/03 06:12:59;;;;;;;2.95;2.40;;;;;;;25.45;45.45;99399.75;4924486;29;20418;-93
2022/08/03 06:15:25;;;;;;;2.85;2.30;;;;;;;25.49;44.48;99412.44;4877175;29;20044;-94
2022/08/03 06:18:06;;;;;;;5.13;1.98;;;;;;;25.59;43.71;99405.53;4908752;29;20150;-94
2022/08/03 06:20:31;;;;;;;;;;;;;;;25.66;42.01;99433.19;4912007;29;20024;-92
2022/08/03 06:22:57;;;;;;;3.42;1.70;;;;;;;25.66;41.76;99405.63;4945397;29;20597;-93
2022/08/03 06:25:24;;;;;;;4.15;1.50;;;;;;;25.66;40.46;99396.56;4915009;29;20027;-94
2022/08/03 06:27:50;;;;;;;2.90;1.70;;;;;;;25.80;39.60;99416.09;4960272;29;20082;-92
2022/08/03 06:30:16;;;;;;;5.80;1.90;;;;;;;25.93;39.58;99409.22;4929865;29;20062;-95
2022/08/03 06:32:42;;;;;;;3.40;1.98;;;;;;;26.16;37.19;99431.25;4912327;29;20121;-96
2022/08/03 06:35:08;;;;;;;1.83;1.20;;;;;;;26.12;36.82;99411.06;4913420;29;20118;-95
2022/08/03 06:38:00;;;;;;;3.60;1.00;;;;;;;26.17;36.38;99412.75;4929736;29;20051;-94
2022/08/03 06:40:30;;;;;;;4.03;1.60;;;;;;;26.12;36.53;99407.53;4923321;29;20405;-95
2022/08/03 06:43:14;;;;;;;5.22;1.38;;;;;;;26.07;36.94;99400.38;4938567;29;20019;-96
2022/08/03 06:45:40;;;;;;;2.42;1.48;;;;;;;26.03;35.71;99405.03;4934292;29;20032;-93
2022/08/03 06:51:10;;;;;;;7.03;4.05;;;;;;;26.00;36.58;99406.59;4944971;29;20079;-96
2022/08/03 06:53:36;;;;;;;3.45;1.27;;;;;;;25.95;36.66;99390.34;4916217;29;20027;-94
2022/08/03 06:56:06;;;;;;;2.78;1.10;;;;;;;25.94;35.99;99412.78;4948954;28;20386;-94
2022/08/03 06:58:32;;;;;;;1.73;1.05;;;;;;;26.03;36.43;99404.25;4951535;28;20026;-92
2022/08/03 07:00:58;;;;;;;2.55;1.65;;;;;;;26.11;36.36;99408.72;4946256;28;20117;-94
2022/08/03 07:03:23;;;;;;;4.18;3.30;;;;;;;26.22;35.85;99412.41;4937658;28;20054;-93
2022/08/03 07:05:52;;;;;;;4.03;2.65;;;;;;;26.37;35.63;99408.66;4925256;29;20027;-94
2022/08/03 07:08:18;;;;;;;4.70;1.75;;;;;;;26.52;36.58;99428.19;4914177;29;20506;-94
2022/08/03 07:13:50;;;;;;;5.57;2.85;;;;;;;26.76;35.92;99407.59;4941931;29;20123;-93
2022/08/03 07:16:39;;;;;;;6.53;4.57;;;;;;;26.97;35.59;99415.34;4934449;29;20115;-94
2022/08/03 07:19:48;;;;;;;;;;;;;;;;;;;;;
2022/08/03 07:22:23;;;;;;;4.25;3.00;;;;;;;27.27;34.55;99418.06;4971167;29;20106;-95
2022/08/03 07:24:58;;;;;;;3.25;2.08;;;;;;;27.16;34.43;99404.06;4948419;29;20042;-94
2022/08/03 07:27:32;;;;;;;3.28;2.10;;;;;;;27.28;34.35;99405.81;4934312;29;20090;-94
2022/08/03 07:30:00;;;;;;;2.42;1.48;;;;;;;27.42;34.53;99427.28;4951756;29;20019;-93
2022/08/03 07:32:27;;;;;;;5.60;2.10;;;;;;;27.43;34.53;99437.16;4916889;29;20098;-93
2022/08/03 07:34:58;;;;;;;5.65;2.28;;;;;;;27.47;35.04;99423.34;4915757;29;20043;-94
2022/08/03 07:37:38;;;;;;;5.15;3.25;;;;;;;27.52;34.56;99418.28;4919199;29;20543;-96
2022/08/03 07:40:34;;;;;;;5.88;2.10;;;;;;;27.37;34.78;99405.47;4875882;29;20033;-95
2022/08/03 07:43:03;;;;;;;5.43;2.83;;;;;;;27.40;35.74;99400.00;4896686;29;20447;-95
2022/08/03 07:45:31;;;;;;;5.53;3.88;;;;;;;27.58;34.35;99391.03;4888363;29;20107;-92
2022/08/03 07:47:57;;;;;;;4.30;2.33;;;;;;;27.63;34.68;99403.75;4870591;29;20032;-94
2022/08/03 07:50:22;;;;;;;13.20;7.93;;;;;;;27.76;35.01;99408.56;4872990;29;20503;-95
2022/08/03 07:52:49;;;;;;;18.55;13.40;;;;;;;27.78;34.02;99402.66;4871809;29;20037;-94
2022/08/03 07:55:41;;;;;;;9.05;6.97;;;;;;;27.74;34.79;99401.84;4887068;29;20069;-95
2022/08/03 07:58:16;;;;;;;2.30;1.55;;;;;;;27.93;33.51;99398.88;4873095;29;20104;-94
2022/08/03 08:00:43;;;;;;;6.85;2.10;;;;;;;28.00;34.48;99400.88;4872412;29;20503;-93
2022/08/03 08:03:08;;;;;;;3.03;1.48;;;;;;;28.02;34.20;99402.09;4855693;29;20036;-91
2022/08/03 08:05:36;;;;;;;3.85;2.28;;;;;;;28.32;34.00;99414.13;4884842;29;20040;-94
2022/08/03 08:08:08;;;;;;;4.25;1.70;;;;;;;28.18;34.56;99393.47;4870745;29;20036;-94
2022/08/03 08:10:37;;;;;;;1.92;1.38;;;;;;;28.50;34.04;99422.56;4906220;29;20433;-93
2022/08/03 08:13:02;;;;;;;2.83;1.58;;;;;;;28.42;32.97;99414.16;4925759;29;20043;-91
2022/08/03 08:15:31;;;;;;;3.60;1.73;;;;;;;28.62;33.05;99411.13;4921680;29;20027;-92
2022/08/03 08:17:58;;;;;;;1.38;1.20;;;;;;;28.65;31.65;99406.78;4937782;29;20580;-93
2022/08/03 08:20:26;;;;;;;1.80;1.40;;;;;;;28.58;31.93;99410.31;4910480;29;20039;-93
2022/08/03 08:23:06;;;;;;;2.03;1.33;;;;;;;28.54;31.35;99415.84;4938135;29;20031;-96
2022/08/03 08:36:06;;;;;;;2.33;1.30;;;;;;;28.23;32.67;99425.53;4870635;29;20050;-95
2022/08/03 08:39:00;;;;;;;2.90;2.30;;;;;;;28.21;32.87;99420.38;4818631;29;20369;-95
2022/08/03 08:42:02;;;;;;;2.50;1.85;;;;;;;27.89;32.15;99400.81;4846119;29;20034;-95
2022/08/03 08:44:47;;;;;;;;;;;;;;;;;;;;;
2022/08/03 08:48:04;;;;;;;3.50;1.80;;;;;;;27.97;33.05;99410.75;4933928;29;20094;-96
2022/08/03 08:50:42;;;;;;;10.00;5.35;;;;;;;28.05;33.09;99396.94;4922757;29;20491;-95
2022/08/03 08:54:04;;;;;;;;;;;;;;;;;;;;;
2022/08/03 08:56:43;;;;;;;13.38;3.65;;;;;;;28.39;33.56;99426.03;4925836;29;20576;-96
2022/08/03 09:32:59;;;;;;;3.97;1.40;;;;;;;29.32;31.21;99402.59;4790484;30;20142;-92
2022/08/03 09:35:30;;;;;;;2.05;1.40;;;;;;;29.46;30.50;99383.19;4785403;29;20457;-93
2022/08/03 09:38:11;;;;;;;;;;;;;;;29.56;30.96;99396.28;4809979;29;20150;-93
2022/08/03 09:40:37;;;;;;;2.55;1.90;;;;;;;29.52;30.42;99403.81;4842308;29;19921;-90
2022/08/03 09:43:02;;;;;;;2.05;1.48;;;;;;;29.43;31.07;99384.00;4809325;29;20464;-92
2022/08/03 09:45:30;;;;;;;4.80;2.55;;;;;;;29.45;31.08;99384.41;4840186;29;20043;-93
2022/08/03 09:48:18;;;;;;;2.22;1.50;;;;;;;29.61;30.62;99390.34;4901352;29;20116;-92
2022/08/03 09:50:52;;;;;;;3.33;1.50;;;;;;;29.52;30.31;99378.84;4890920;29;20039;-93
2022/08/03 09:53:23;;;;;;;6.43;4.57;;;;;;;29.67;30.17;99367.72;4864158;29;20088;-95
2022/08/03 09:56:45;;;;;;;3.20;1.80;;;;;;;30.02;31.18;99389.13;4862927;29;20173;-93
2022/08/03 09:59:26;;;;;;;4.95;2.13;;;;;;;30.12;30.05;99379.19;4899381;29;20096;-92
2022/08/03 10:01:52;;;;;;;2.72;1.33;;;;;;;30.12;29.78;99376.41;4855358;29;20037;-92
2022/08/03 10:04:27;;;;;;;3.47;1.98;;;;;;;30.15;29.43;99375.59;4866276;29;20036;-93
2022/08/03 10:07:54;;;;;;;1.67;1.20;;;;;;;30.06;29.70;99375.25;4857026;29;20104;-93
2022/08/03 10:10:17;;;;;;;2.55;1.40;;;;;;;30.05;29.63;99362.53;4884434;29;20160;-92
2022/08/03 10:12:43;;;;;;;2.22;1.40;;;;;;;29.94;29.41;99352.25;4869025;29;20166;-94
2022/08/03 10:15:09;;;;;;;1.80;1.20;;;;;;;30.06;29.83;99359.38;4853403;29;20036;-93
2022/08/03 10:17:55;;;;;;;3.42;2.63;;;;;;;30.31;29.18;99367.63;4853996;29;20547;-95
2022/08/03 10:23:19;;;;;;;1.70;1.40;;;;;;;30.27;28.79;99350.16;4922900;29;20055;-95
2022/08/03 10:29:13;;;;;;;2.25;1.25;;;;;;;30.31;29.02;99361.31;4926024;29;20094;-91
2022/08/03 10:31:40;;;;;;;2.20;1.25;;;;;;;30.08;28.28;99331.97;4917872;29;20036;-91
2022/08/03 10:34:21;;;;;;;2.15;1.23;;;;;;;30.39;28.50;99335.84;4921127;29;20127;-94
2022/08/03 10:36:52;;;;;;;1.67;0.98;;;;;;;30.50;27.80;99335.81;4905832;29;20030;-95
2022/08/03 10:39:18;;;;;;;4.13;1.23;;;;;;;30.38;28.09;99328.72;4906076;29;20028;-95
2022/08/03 10:41:57;;;;;;;3.63;1.60;;;;;;;30.40;28.58;99337.47;4909721;29;20020;-93
2022/08/03 10:44:28;;;;;;;1.60;1.10;;;;;;;30.36;29.17;99338.66;4907436;29;20072;-93
2022/08/03 10:47:00;;;;;;;3.70;1.45;;;;;;;30.28;28.06;99323.97;4910341;29;20036;-95
2022/08/03 10:49:31;;;;;;;1.80;1.30;;;;;;;30.42;28.54;99340.63;4907637;29;20043;-94
2022/08/03 10:51:58;;;;;;;2.40;1.40;;;;;;;30.37;28.44;99327.13;4908020;29;20118;-94
2022/08/03 10:58:28;;;;;;;1.98;1.17;;;;;;;30.19;28.64;99348.59;4925187;29;20438;-92
2022/08/03 11:00:59;;;;;;;1.10;0.90;;;;;;;30.11;28.59;99313.72;4903444;29;20092;-94
2022/08/03 11:03:27;;;;;;;3.65;1.40;;;;;;;30.04;29.08;99314.53;4934541;29;20692;-94
2022/08/03 11:05:54;;;;;;;2.53;1.30;;;;;;;30.16;28.92;99305.78;4922077;29;20088;-92
2022/08/03 11:08:33;;;;;;;1.38;1.02;;;;;;;30.53;28.17;99317.56;4924019;29;20039;-96
2022/08/03 11:11:31;;;;;;;2.08;1.33;;;;;;;30.79;27.33;99313.41;4866964;29;20037;-95
2022/08/03 11:13:58;;;;;;;1.85;1.15;;;;;;;30.74;27.61;99311.06;4862845;29;20034;-96
2022/08/03 11:16:27;;;;;;;5.80;1.27;;;;;;;30.81;27.36;99297.09;4879119;29;20037;-94
2022/08/03 11:19:36;;;;;;;2.70;1.00;;;;;;;30.76;27.37;99303.13;4854978;29;20034;-96
2022/08/03 11:22:07;;;;;;;4.18;1.60;;;;;;;30.74;27.40;99311.84;4831898;29;20157;-95
2022/08/03 11:24:55;;;;;;;2.70;1.00;;;;;;;30.77;27.31;99321.38;4848513;29;20033;-95
2022/08/03 11:27:48;;;;;;;3.65;1.83;;;;;;;30.94;27.36;99323.28;4866326;29;20033;-95
2022/08/03 11:30:42;;;;;;;3.50;1.17;;;;;;;30.74;27.67;99317.41;4849799;29;20033;-94
2022/08/03 11:33:16;;;;;;;1.63;1.10;;;;;;;30.58;28.15;99289.31;4876058;29;20022;-96
2022/08/03 11:36:00;;;;;;;3.08;1.35;;;;;;;30.69;28.19;99312.25;4883976;29;20044;-93
2022/08/03 11:38:31;;;;;;;2.67;1.00;;;;;;;30.54;28.10;99294.88;4914260;29;20024;-94
2022/08/03 11:41:01;;;;;;;6.97;1.55;;;;;;;30.86;28.40;99304.22;4920539;29;20036;-94
2022/08/03 11:43:40;;;;;;;1.55;1.23;;;;;;;31.07;27.75;99306.91;4887570;29;20065;-94
2022/08/03 11:46:17;;;;;;;;;;;;;;;;;;;;;
2022/08/03 11:48:47;;;;;;;1.52;1.30;;;;;;;30.90;27.87;99280.00;4919452;29;20088;-93
2022/08/03 11:51:27;;;;;;;2.45;1.60;;;;;;;31.17;27.09;99299.63;4918377;29;20055;-94
2022/08/03 11:54:01;;;;;;;1.80;1.60;;;;;;;31.20;27.13;99271.81;4903845;29;20086;-94
2022/08/03 11:56:58;;;;;;;;;;;;;;;;;;;;;
2022/08/03 11:59:42;;;;;;;2.90;1.70;;;;;;;31.65;26.34;99253.50;4916380;29;20036;-92
2022/08/03 12:02:23;;;;;;;1.95;1.10;;;;;;;31.78;26.21;99265.69;4925809;29;20115;-92
2022/08/03 12:05:56;;;;;;;1.95;1.40;;;;;;;31.94;26.19;99270.69;4907107;29;20480;-91
2022/08/03 12:08:59;;;;;;;1.60;1.13;;;;;;;31.62;26.14;99250.34;4890422;29;20036;-96
2022/08/03 12:11:29;;;;;;;2.70;1.48;;;;;;;31.83;26.25;99259.66;4892060;29;20040;-91
2022/08/03 12:13:54;;;;;;;2.63;1.63;;;;;;;31.88;25.93;99264.78;4885902;29;20104;-94
2022/08/03 12:17:00;;;;;;;2.53;1.60;;;;;;;32.00;25.30;99261.47;4883319;29;20236;-94
2022/08/03 12:19:26;;;;;;;4.45;1.65;;;;;;;31.81;25.54;99250.94;4898265;29;20045;-93
2022/08/03 12:21:51;;;;;;;3.28;1.65;;;;;;;31.69;25.69;99251.47;4883695;29;20051;-92
2022/08/03 12:24:19;;;;;;;2.22;1.52;;;;;;;31.92;25.75;99248.03;4899188;29;20043;-91
2022/08/03 12:26:52;;;;;;;3.25;2.20;;;;;;;31.89;24.92;99266.34;4899742;29;20148;-91
2022/08/03 12:30:04;;;;;;;1.40;1.05;;;;;;;31.73;25.33;99266.13;4886196;29;20554;-94
2022/08/03 12:32:30;;;;;;;1.75;1.10;;;;;;;31.95;25.08;99247.19;4888773;29;20145;-95
2022/08/03 12:35:04;;;;;;;4.10;1.50;;;;;;;32.12;25.43;99254.53;4884626;29;20391;-94
2022/08/03 12:37:35;;;;;;;3.33;2.15;;;;;;;32.04;25.02;99246.72;4868081;29;20114;-93
2022/08/03 12:40:15;;;;;;;;;;;;;;;;;;;;;
2022/08/03 12:42:41;;;;;;;1.75;1.30;;;;;;;31.73;25.67;99235.50;4913794;29;19919;-94
2022/08/03 12:45:25;;;;;;;2.03;1.20;;;;;;;31.79;25.73;99250.56;4904611;29;20067;-93
2022/08/03 12:48:47;;;;;;;1.67;1.20;;;;;;;31.38;25.60;99227.13;4919431;29;20127;-96
2022/08/03 12:51:43;;;;;;;1.50;1.00;;;;;;;31.25;26.04;99233.59;4882563;29;20045;-94
2022/08/03 12:54:42;;;;;;;2.88;1.13;;;;;;;31.21;26.19;99230.84;4899366;29;20464;-92
2022/08/03 12:57:16;;;;;;;1.92;1.10;;;;;;;31.49;25.15;99224.25;4920184;29;20040;-93
2022/08/03 13:00:08;;;;;;;1.20;1.00;;;;;;;31.67;24.51;99224.06;4906573;29;20036;-92
2022/08/03 13:02:34;;;;;;;1.45;1.00;;;;;;;31.79;25.12;99226.31;4899076;29;20056;-93
2022/08/03 13:05:10;;;;;;;2.05;1.45;;;;;;;31.86;25.57;99231.00;4899706;29;20060;-93
2022/08/03 13:07:43;;;;;;;2.10;1.30;;;;;;;32.09;25.22;99229.53;4902547;29;20032;-93
2022/08/03 13:10:32;;;;;;;1.98;1.10;;;;;;;32.01;24.76;99215.69;4902759;29;20043;-94
2022/08/03 13:13:19;;;;;;;4.85;2.15;;;;;;;31.94;25.02;99228.91;4893441;29;20041;-93